Juergen K — PBKV — position and weather

sailwx.info

Track history (hours):
 
Tides and Currents Weather Stations Pressure Air Temp Water Temp Dewpoint Dewpoint Depression Visibility Wind Speed Wind Dir Waves Ship Positions

Juergen K

Last reported at 2017-Jul-26 21:03 UTC. Time now 2017-Jul-27 08:53 UTC.
Position N 40°54' E 001°45'.

Length 89 m; draft 3.6 m.

Type: Cargo ship. MMSI: 244329000.

Date/timePositionNaut miles runAvg speedWind from/ knotsBaromVisibWave heightAir tempDewpointWater temp
2017-Jul-26 21:03N 40°54' E 001°45'110.7
2017-Jul-26 20:59N 40°53' E 001°44'510.7
2017-Jul-26 20:30N 40°49' E 001°40'510.7
2017-Jul-26 20:00N 40°45' E 001°35'510.7
2017-Jul-26 19:30N 40°41' E 001°30'510.6
2017-Jul-26 19:00N 40°37' E 001°26'510.6
2017-Jul-26 18:30N 40°33' E 001°21'510.7
2017-Jul-26 18:00N 40°30' E 001°16'510.9
2017-Jul-26 17:30N 40°27' E 001°10'511.1
2017-Jul-26 17:00N 40°24' E 001°04'611.2
2017-Jul-26 16:28N 40°21' E 000°57'511.3
2017-Jul-26 16:00N 40°18' E 000°51'611.3
2017-Jul-26 15:28N 40°15' E 000°45'511.2
2017-Jul-26 15:00N 40°12' E 000°39'  
2017-Jul-23 15:29N 39°57' E 000°08'0 0.9
2017-Jul-23 14:59N 39°57' E 000°07'49 9.0
2017-Jul-23 09:30N 39°09' E 000°20'7 9.9
2017-Jul-23 08:50N 39°02' E 000°22'4 9.7
2017-Jul-23 08:28N 38°59' E 000°23'25 8.8
2017-Jul-23 05:37N 38°34' E 000°20'6 9.2
2017-Jul-23 04:57N 38°28' E 000°16'6 9.1
2017-Jul-23 04:19N 38°24' E 000°12'3 9.1
2017-Jul-23 04:00N 38°21' E 000°10'9 9.1
2017-Jul-23 02:58N 38°13' E 000°03'4 8.9
2017-Jul-23 02:30N 38°10' E 000°00'4 8.9
2017-Jul-23 02:01N 38°06' W 000°03'4 8.8
2017-Jul-23 01:31N 38°03' W 000°06'6 8.9
2017-Jul-23 00:50N 37°58' W 000°10'3 9.1
2017-Jul-23 00:30N 37°55' W 000°12'11 9.2
2017-Jul-22 23:22N 37°46' W 000°20'4 9.2
2017-Jul-22 22:55N 37°43' W 000°23'5 9.1
2017-Jul-22 22:24N 37°39' W 000°26'4 9.1
2017-Jul-22 21:56N 37°36' W 000°29'5 8.9
2017-Jul-22 21:23N 37°32' W 000°33'6 9.2
2017-Jul-22 20:43N 37°28' W 000°38'15 9.4
2017-Jul-22 19:05N 37°17' W 000°53'4 9.6
2017-Jul-22 18:40N 37°15' W 000°57'7 9.4
2017-Jul-22 17:55N 37°10' W 001°03'18 9.6
2017-Jul-22 16:00N 36°58' W 001°20'11 9.7
2017-Jul-22 14:52N 36°51' W 001°31'8 9.6
2017-Jul-22 14:00N 36°45' W 001°39'8 9.4
2017-Jul-22 13:10N 36°40' W 001°46'1 9.5
2017-Jul-22 13:01N 36°39' W 001°47'5 9.3
2017-Jul-22 12:30N 36°36' W 001°52'5 9.4
2017-Jul-22 11:59N 36°33' W 001°56'5 9.5
2017-Jul-22 11:27N 36°29' W 002°01'4 9.6
2017-Jul-22 11:01N 36°26' W 002°05'9 9.3
2017-Jul-22 10:02N 36°22' W 002°15'0 9.5
2017-Jul-22 10:01N 36°22' W 002°15'387 8.3
2017-Jul-20 11:16N 38°17' W 009°59'3 9.6
2017-Jul-20 11:00N 38°20' W 009°60'5 9.5
2017-Jul-20 10:30N 38°25' W 010°01'5 9.6
2017-Jul-20 10:00N 38°29' W 010°02'5 9.8
2017-Jul-20 09:30N 38°34' W 010°04'5 9.6
2017-Jul-20 09:00N 38°39' W 010°05'5 9.1
2017-Jul-20 08:30N 38°43' W 010°06'5 9.3
2017-Jul-20 08:00N 38°48' W 010°06'5 9.6
2017-Jul-20 07:30N 38°53' W 010°06'5 9.3
2017-Jul-20 07:01N 38°57' W 010°06'5 9.5
2017-Jul-20 06:30N 39°02' W 010°06'5 9.6
2017-Jul-20 06:01N 39°07' W 010°06'5 9.5
2017-Jul-20 05:30N 39°12' W 010°06'5 9.5
2017-Jul-20 05:00N 39°16' W 010°06'7 9.5
2017-Jul-20 04:19N 39°23' W 010°06'5 9.5
2017-Jul-20 03:48N 39°28' W 010°06'  
Track history (hours):
 
Tides and Currents Weather Stations Pressure Air Temp Water Temp Dewpoint Dewpoint Depression Visibility Wind Speed Wind Dir Waves Ship Positions

Juergen K

Last reported at 2017-Jul-26 21:03 UTC. Time now 2017-Jul-27 08:53 UTC.
Position N 40°54' E 001°45'.

Length 89 m; draft 3.6 m.

Type: Cargo ship. MMSI: 244329000.

Date/timePositionNaut miles runAvg speedWind from/ knotsBaromVisibWave heightAir tempDewpointWater temp
2017-Jul-26 21:03N 40°54' E 001°45'110.7
2017-Jul-26 20:59N 40°53' E 001°44'510.7
2017-Jul-26 20:30N 40°49' E 001°40'510.7
2017-Jul-26 20:00N 40°45' E 001°35'510.7
2017-Jul-26 19:30N 40°41' E 001°30'510.6
2017-Jul-26 19:00N 40°37' E 001°26'510.6
2017-Jul-26 18:30N 40°33' E 001°21'510.7
2017-Jul-26 18:00N 40°30' E 001°16'510.9
2017-Jul-26 17:30N 40°27' E 001°10'511.1
2017-Jul-26 17:00N 40°24' E 001°04'611.2
2017-Jul-26 16:28N 40°21' E 000°57'511.3
2017-Jul-26 16:00N 40°18' E 000°51'611.3
2017-Jul-26 15:28N 40°15' E 000°45'511.2
2017-Jul-26 15:00N 40°12' E 000°39'  
2017-Jul-23 15:29N 39°57' E 000°08'0 0.9
2017-Jul-23 14:59N 39°57' E 000°07'49 9.0
2017-Jul-23 09:30N 39°09' E 000°20'7 9.9
2017-Jul-23 08:50N 39°02' E 000°22'4 9.7
2017-Jul-23 08:28N 38°59' E 000°23'25 8.8
2017-Jul-23 05:37N 38°34' E 000°20'6 9.2
2017-Jul-23 04:57N 38°28' E 000°16'6 9.1
2017-Jul-23 04:19N 38°24' E 000°12'3 9.1
2017-Jul-23 04:00N 38°21' E 000°10'9 9.1
2017-Jul-23 02:58N 38°13' E 000°03'4 8.9
2017-Jul-23 02:30N 38°10' E 000°00'4 8.9
2017-Jul-23 02:01N 38°06' W 000°03'4 8.8
2017-Jul-23 01:31N 38°03' W 000°06'6 8.9
2017-Jul-23 00:50N 37°58' W 000°10'3 9.1
2017-Jul-23 00:30N 37°55' W 000°12'11 9.2
2017-Jul-22 23:22N 37°46' W 000°20'4 9.2
2017-Jul-22 22:55N 37°43' W 000°23'5 9.1
2017-Jul-22 22:24N 37°39' W 000°26'4 9.1
2017-Jul-22 21:56N 37°36' W 000°29'5 8.9
2017-Jul-22 21:23N 37°32' W 000°33'6 9.2
2017-Jul-22 20:43N 37°28' W 000°38'15 9.4
2017-Jul-22 19:05N 37°17' W 000°53'4 9.6
2017-Jul-22 18:40N 37°15' W 000°57'7 9.4
2017-Jul-22 17:55N 37°10' W 001°03'18 9.6
2017-Jul-22 16:00N 36°58' W 001°20'11 9.7
2017-Jul-22 14:52N 36°51' W 001°31'8 9.6
2017-Jul-22 14:00N 36°45' W 001°39'8 9.4
2017-Jul-22 13:10N 36°40' W 001°46'1 9.5
2017-Jul-22 13:01N 36°39' W 001°47'5 9.3
2017-Jul-22 12:30N 36°36' W 001°52'5 9.4
2017-Jul-22 11:59N 36°33' W 001°56'5 9.5
2017-Jul-22 11:27N 36°29' W 002°01'4 9.6
2017-Jul-22 11:01N 36°26' W 002°05'9 9.3
2017-Jul-22 10:02N 36°22' W 002°15'0 9.5
2017-Jul-22 10:01N 36°22' W 002°15'387 8.3
2017-Jul-20 11:16N 38°17' W 009°59'3 9.6
2017-Jul-20 11:00N 38°20' W 009°60'5 9.5
2017-Jul-20 10:30N 38°25' W 010°01'5 9.6
2017-Jul-20 10:00N 38°29' W 010°02'5 9.8
2017-Jul-20 09:30N 38°34' W 010°04'5 9.6
2017-Jul-20 09:00N 38°39' W 010°05'5 9.1
2017-Jul-20 08:30N 38°43' W 010°06'5 9.3
2017-Jul-20 08:00N 38°48' W 010°06'5 9.6
2017-Jul-20 07:30N 38°53' W 010°06'5 9.3
2017-Jul-20 07:01N 38°57' W 010°06'5 9.5
2017-Jul-20 06:30N 39°02' W 010°06'5 9.6
2017-Jul-20 06:01N 39°07' W 010°06'5 9.5
2017-Jul-20 05:30N 39°12' W 010°06'5 9.5
2017-Jul-20 05:00N 39°16' W 010°06'7 9.5
2017-Jul-20 04:19N 39°23' W 010°06'5 9.5
2017-Jul-20 03:48N 39°28' W 010°06'  

Dump ship's entire track history